sensor_id;sensor_type;location;lat;lon;timestamp;temperature;humidity
19799;DHT22;10059;59.850;10.454;2023-06-04T00:00:18;9.60;99.90
19799;DHT22;10059;59.850;10.454;2023-06-04T00:02:45;9.60;99.90
19799;DHT22;10059;59.850;10.454;2023-06-04T00:05:12;9.60;99.90
19799;DHT22;10059;59.850;10.454;2023-06-04T00:07:38;9.80;99.90
19799;DHT22;10059;59.850;10.454;2023-06-04T00:10:06;9.80;99.90
19799;DHT22;10059;59.850;10.454;2023-06-04T00:12:34;9.80;99.90
19799;DHT22;10059;59.850;10.454;2023-06-04T00:15:01;9.70;99.90
19799;DHT22;10059;59.850;10.454;2023-06-04T00:17:28;9.90;99.90
19799;DHT22;10059;59.850;10.454;2023-06-04T00:19:55;9.90;99.90
19799;DHT22;10059;59.850;10.454;2023-06-04T00:22:22;9.80;99.90
19799;DHT22;10059;59.850;10.454;2023-06-04T00:24:49;9.70;99.90
19799;DHT22;10059;59.850;10.454;2023-06-04T00:27:16;9.60;99.90
19799;DHT22;10059;59.850;10.454;2023-06-04T00:29:44;9.60;99.90
19799;DHT22;10059;59.850;10.454;2023-06-04T00:32:11;9.70;99.90
19799;DHT22;10059;59.850;10.454;2023-06-04T00:34:37;9.70;99.90
19799;DHT22;10059;59.850;10.454;2023-06-04T00:37:05;9.80;99.90
19799;DHT22;10059;59.850;10.454;2023-06-04T00:39:32;9.70;99.90
19799;DHT22;10059;59.850;10.454;2023-06-04T00:42:00;9.80;99.90
19799;DHT22;10059;59.850;10.454;2023-06-04T00:44:26;9.60;99.90
19799;DHT22;10059;59.850;10.454;2023-06-04T00:46:55;9.60;99.90
19799;DHT22;10059;59.850;10.454;2023-06-04T00:49:22;9.60;99.90
19799;DHT22;10059;59.850;10.454;2023-06-04T00:51:49;9.70;99.90
19799;DHT22;10059;59.850;10.454;2023-06-04T00:54:16;9.70;99.90
19799;DHT22;10059;59.850;10.454;2023-06-04T00:56:44;9.70;99.90
19799;DHT22;10059;59.850;10.454;2023-06-04T00:59:11;9.60;99.90
19799;DHT22;10059;59.850;10.454;2023-06-04T01:01:44;9.60;99.90
19799;DHT22;10059;59.850;10.454;2023-06-04T01:04:18;9.60;99.90
19799;DHT22;10059;59.850;10.454;2023-06-04T01:06:50;9.70;99.90
19799;DHT22;10059;59.850;10.454;2023-06-04T01:09:18;9.70;99.90
19799;DHT22;10059;59.850;10.454;2023-06-04T01:11:44;9.70;99.90
19799;DHT22;10059;59.850;10.454;2023-06-04T01:14:11;9.70;99.90
19799;DHT22;10059;59.850;10.454;2023-06-04T01:16:41;9.80;99.90
19799;DHT22;10059;59.850;10.454;2023-06-04T01:19:20;9.80;99.90
19799;DHT22;10059;59.850;10.454;2023-06-04T01:21:53;9.60;99.90
19799;DHT22;10059;59.850;10.454;2023-06-04T01:24:24;9.70;99.90
19799;DHT22;10059;59.850;10.454;2023-06-04T01:26:53;9.80;99.90
19799;DHT22;10059;59.850;10.454;2023-06-04T01:29:22;9.80;99.90
19799;DHT22;10059;59.850;10.454;2023-06-04T01:31:50;9.80;99.90
19799;DHT22;10059;59.850;10.454;2023-06-04T01:34:20;9.70;99.90
19799;DHT22;10059;59.850;10.454;2023-06-04T01:36:47;9.80;99.90
19799;DHT22;10059;59.850;10.454;2023-06-04T01:39:13;9.70;99.90
19799;DHT22;10059;59.850;10.454;2023-06-04T01:41:40;9.60;99.90
19799;DHT22;10059;59.850;10.454;2023-06-04T01:44:07;9.70;99.90
19799;DHT22;10059;59.850;10.454;2023-06-04T01:46:34;9.80;99.90
19799;DHT22;10059;59.850;10.454;2023-06-04T01:49:01;9.80;99.90
19799;DHT22;10059;59.850;10.454;2023-06-04T01:51:29;9.80;99.90
19799;DHT22;10059;59.850;10.454;2023-06-04T01:53:56;9.70;99.90
19799;DHT22;10059;59.850;10.454;2023-06-04T01:56:22;9.70;99.90
19799;DHT22;10059;59.850;10.454;2023-06-04T01:58:50;9.60;99.90
19799;DHT22;10059;59.850;10.454;2023-06-04T02:01:17;9.70;99.90
19799;DHT22;10059;59.850;10.454;2023-06-04T02:03:46;9.70;99.90
19799;DHT22;10059;59.850;10.454;2023-06-04T02:06:13;9.70;99.90
19799;DHT22;10059;59.850;10.454;2023-06-04T02:08:41;9.70;99.90
19799;DHT22;10059;59.850;10.454;2023-06-04T02:11:08;9.70;99.90
19799;DHT22;10059;59.850;10.454;2023-06-04T02:13:35;9.70;99.90
19799;DHT22;10059;59.850;10.454;2023-06-04T02:16:02;9.80;99.90
19799;DHT22;10059;59.850;10.454;2023-06-04T02:18:29;9.80;99.90
19799;DHT22;10059;59.850;10.454;2023-06-04T02:20:57;9.90;99.90
19799;DHT22;10059;59.850;10.454;2023-06-04T02:23:24;10.00;99.90
19799;DHT22;10059;59.850;10.454;2023-06-04T02:25:52;10.20;99.90
19799;DHT22;10059;59.850;10.454;2023-06-04T02:28:20;10.30;99.90
19799;DHT22;10059;59.850;10.454;2023-06-04T02:30:47;10.50;99.90
19799;DHT22;10059;59.850;10.454;2023-06-04T02:33:14;10.60;99.90
19799;DHT22;10059;59.850;10.454;2023-06-04T02:35:41;10.80;99.90
19799;DHT22;10059;59.850;10.454;2023-06-04T02:38:08;10.90;99.90
19799;DHT22;10059;59.850;10.454;2023-06-04T02:40:35;10.90;99.90
19799;DHT22;10059;59.850;10.454;2023-06-04T02:43:03;11.00;99.90
19799;DHT22;10059;59.850;10.454;2023-06-04T02:45:30;11.10;99.90
19799;DHT22;10059;59.850;10.454;2023-06-04T02:47:57;11.10;99.90
19799;DHT22;10059;59.850;10.454;2023-06-04T02:50:24;11.20;99.90
19799;DHT22;10059;59.850;10.454;2023-06-04T02:52:51;11.30;99.90
19799;DHT22;10059;59.850;10.454;2023-06-04T02:55:17;11.40;99.90
19799;DHT22;10059;59.850;10.454;2023-06-04T02:57:44;11.70;99.90
19799;DHT22;10059;59.850;10.454;2023-06-04T03:00:14;11.80;99.90
19799;DHT22;10059;59.850;10.454;2023-06-04T03:02:43;11.80;99.90
19799;DHT22;10059;59.850;10.454;2023-06-04T03:05:11;11.80;99.90
19799;DHT22;10059;59.850;10.454;2023-06-04T03:07:39;11.90;99.90
19799;DHT22;10059;59.850;10.454;2023-06-04T03:10:09;11.90;99.90
19799;DHT22;10059;59.850;10.454;2023-06-04T03:12:36;12.00;99.90
19799;DHT22;10059;59.850;10.454;2023-06-04T03:15:03;12.00;99.90
19799;DHT22;10059;59.850;10.454;2023-06-04T03:17:32;12.00;99.90
19799;DHT22;10059;59.850;10.454;2023-06-04T03:19:58;11.90;99.90
19799;DHT22;10059;59.850;10.454;2023-06-04T03:22:26;12.00;99.90
19799;DHT22;10059;59.850;10.454;2023-06-04T03:24:53;12.10;99.90
19799;DHT22;10059;59.850;10.454;2023-06-04T03:27:20;12.20;99.90
19799;DHT22;10059;59.850;10.454;2023-06-04T03:29:47;12.20;99.90
19799;DHT22;10059;59.850;10.454;2023-06-04T03:32:14;12.20;99.90
19799;DHT22;10059;59.850;10.454;2023-06-04T03:34:43;12.10;99.90
19799;DHT22;10059;59.850;10.454;2023-06-04T03:37:10;12.30;99.90
19799;DHT22;10059;59.850;10.454;2023-06-04T03:39:37;12.40;99.90
19799;DHT22;10059;59.850;10.454;2023-06-04T03:42:04;12.60;99.90
19799;DHT22;10059;59.850;10.454;2023-06-04T03:44:31;12.70;99.90
19799;DHT22;10059;59.850;10.454;2023-06-04T03:46:58;12.80;99.90
19799;DHT22;10059;59.850;10.454;2023-06-04T03:49:25;12.90;99.90
19799;DHT22;10059;59.850;10.454;2023-06-04T03:51:53;13.00;99.90
19799;DHT22;10059;59.850;10.454;2023-06-04T03:54:21;13.10;99.90
19799;DHT22;10059;59.850;10.454;2023-06-04T03:56:48;13.30;99.90
19799;DHT22;10059;59.850;10.454;2023-06-04T03:59:15;13.30;99.90
19799;DHT22;10059;59.850;10.454;2023-06-04T04:01:42;13.30;99.90
19799;DHT22;10059;59.850;10.454;2023-06-04T04:04:09;13.50;99.90
19799;DHT22;10059;59.850;10.454;2023-06-04T04:06:36;13.60;99.90
19799;DHT22;10059;59.850;10.454;2023-06-04T04:09:04;13.70;99.90
19799;DHT22;10059;59.850;10.454;2023-06-04T04:11:32;13.80;99.90
19799;DHT22;10059;59.850;10.454;2023-06-04T04:13:59;13.80;99.90
19799;DHT22;10059;59.850;10.454;2023-06-04T04:16:26;13.90;99.90
19799;DHT22;10059;59.850;10.454;2023-06-04T04:18:54;14.00;99.90
19799;DHT22;10059;59.850;10.454;2023-06-04T04:21:21;13.90;99.90
19799;DHT22;10059;59.850;10.454;2023-06-04T04:23:49;14.00;99.90
19799;DHT22;10059;59.850;10.454;2023-06-04T04:26:18;14.20;99.90
19799;DHT22;10059;59.850;10.454;2023-06-04T04:28:45;14.20;99.90
19799;DHT22;10059;59.850;10.454;2023-06-04T04:31:11;14.30;99.90
19799;DHT22;10059;59.850;10.454;2023-06-04T04:33:38;14.30;99.90
19799;DHT22;10059;59.850;10.454;2023-06-04T04:36:06;14.20;99.90
19799;DHT22;10059;59.850;10.454;2023-06-04T04:38:38;14.20;99.90
19799;DHT22;10059;59.850;10.454;2023-06-04T04:41:05;14.10;99.90
19799;DHT22;10059;59.850;10.454;2023-06-04T04:43:36;14.40;99.90
19799;DHT22;10059;59.850;10.454;2023-06-04T04:46:05;14.30;99.90
19799;DHT22;10059;59.850;10.454;2023-06-04T04:48:32;14.50;99.90
19799;DHT22;10059;59.850;10.454;2023-06-04T04:50:59;14.40;99.90
19799;DHT22;10059;59.850;10.454;2023-06-04T04:53:26;14.30;99.90
19799;DHT22;10059;59.850;10.454;2023-06-04T04:55:53;14.60;99.90
19799;DHT22;10059;59.850;10.454;2023-06-04T04:58:20;14.70;99.90
19799;DHT22;10059;59.850;10.454;2023-06-04T05:00:48;14.90;99.90
19799;DHT22;10059;59.850;10.454;2023-06-04T05:03:15;15.10;99.90
19799;DHT22;10059;59.850;10.454;2023-06-04T05:05:42;15.20;99.90
19799;DHT22;10059;59.850;10.454;2023-06-04T05:08:09;15.40;99.90
19799;DHT22;10059;59.850;10.454;2023-06-04T05:10:36;15.20;99.90
19799;DHT22;10059;59.850;10.454;2023-06-04T05:13:03;15.20;99.90
19799;DHT22;10059;59.850;10.454;2023-06-04T05:15:31;15.00;99.90
19799;DHT22;10059;59.850;10.454;2023-06-04T05:18:00;14.70;99.90
19799;DHT22;10059;59.850;10.454;2023-06-04T05:20:29;14.90;99.90
19799;DHT22;10059;59.850;10.454;2023-06-04T05:22:56;15.10;99.90
19799;DHT22;10059;59.850;10.454;2023-06-04T05:25:23;15.20;99.90
19799;DHT22;10059;59.850;10.454;2023-06-04T05:27:50;15.10;99.90
19799;DHT22;10059;59.850;10.454;2023-06-04T05:30:16;15.00;99.90
19799;DHT22;10059;59.850;10.454;2023-06-04T05:32:43;15.10;99.90
19799;DHT22;10059;59.850;10.454;2023-06-04T05:35:11;15.20;99.90
19799;DHT22;10059;59.850;10.454;2023-06-04T05:37:38;15.00;99.90
19799;DHT22;10059;59.850;10.454;2023-06-04T05:40:08;15.00;99.90
19799;DHT22;10059;59.850;10.454;2023-06-04T05:42:36;15.40;99.90
19799;DHT22;10059;59.850;10.454;2023-06-04T05:45:04;15.40;99.90
19799;DHT22;10059;59.850;10.454;2023-06-04T05:47:33;15.70;99.90
19799;DHT22;10059;59.850;10.454;2023-06-04T05:50:00;15.30;99.90
19799;DHT22;10059;59.850;10.454;2023-06-04T05:52:28;15.50;99.90
19799;DHT22;10059;59.850;10.454;2023-06-04T05:54:55;15.60;99.90
19799;DHT22;10059;59.850;10.454;2023-06-04T05:57:22;15.60;99.90
19799;DHT22;10059;59.850;10.454;2023-06-04T05:59:49;15.80;99.90
19799;DHT22;10059;59.850;10.454;2023-06-04T06:02:15;15.40;99.90
19799;DHT22;10059;59.850;10.454;2023-06-04T06:04:42;15.40;99.90
19799;DHT22;10059;59.850;10.454;2023-06-04T06:07:09;15.60;99.90
19799;DHT22;10059;59.850;10.454;2023-06-04T06:09:38;15.50;99.90
19799;DHT22;10059;59.850;10.454;2023-06-04T06:12:05;15.50;99.90
19799;DHT22;10059;59.850;10.454;2023-06-04T06:14:32;16.00;99.90
19799;DHT22;10059;59.850;10.454;2023-06-04T06:16:58;15.80;99.90
19799;DHT22;10059;59.850;10.454;2023-06-04T06:19:25;15.80;99.90
19799;DHT22;10059;59.850;10.454;2023-06-04T06:21:53;16.10;99.90
19799;DHT22;10059;59.850;10.454;2023-06-04T06:24:19;16.40;99.90
19799;DHT22;10059;59.850;10.454;2023-06-04T06:26:47;16.10;99.90
19799;DHT22;10059;59.850;10.454;2023-06-04T06:29:14;16.20;99.90
19799;DHT22;10059;59.850;10.454;2023-06-04T06:31:41;16.60;99.90
19799;DHT22;10059;59.850;10.454;2023-06-04T06:34:08;16.50;99.90
19799;DHT22;10059;59.850;10.454;2023-06-04T06:36:35;16.90;99.90
19799;DHT22;10059;59.850;10.454;2023-06-04T06:39:02;16.30;99.90
19799;DHT22;10059;59.850;10.454;2023-06-04T06:41:29;16.70;99.90
19799;DHT22;10059;59.850;10.454;2023-06-04T06:43:57;17.00;99.90
19799;DHT22;10059;59.850;10.454;2023-06-04T06:46:24;16.90;99.90
19799;DHT22;10059;59.850;10.454;2023-06-04T06:48:51;16.70;99.90
19799;DHT22;10059;59.850;10.454;2023-06-04T06:51:18;17.00;99.90
19799;DHT22;10059;59.850;10.454;2023-06-04T06:53:45;17.10;99.90
19799;DHT22;10059;59.850;10.454;2023-06-04T06:56:14;17.40;99.90
19799;DHT22;10059;59.850;10.454;2023-06-04T06:58:41;17.80;99.90
19799;DHT22;10059;59.850;10.454;2023-06-04T07:01:10;17.10;99.90
19799;DHT22;10059;59.850;10.454;2023-06-04T07:03:37;16.80;99.90
19799;DHT22;10059;59.850;10.454;2023-06-04T07:06:05;17.20;99.90
19799;DHT22;10059;59.850;10.454;2023-06-04T07:08:32;17.90;99.90
19799;DHT22;10059;59.850;10.454;2023-06-04T07:10:59;18.00;99.90
19799;DHT22;10059;59.850;10.454;2023-06-04T07:13:26;18.50;99.90
19799;DHT22;10059;59.850;10.454;2023-06-04T07:15:53;18.60;99.90
19799;DHT22;10059;59.850;10.454;2023-06-04T07:18:21;18.50;99.90
19799;DHT22;10059;59.850;10.454;2023-06-04T07:20:48;18.10;99.90
19799;DHT22;10059;59.850;10.454;2023-06-04T07:23:16;17.70;99.90
19799;DHT22;10059;59.850;10.454;2023-06-04T07:25:43;17.30;99.90
19799;DHT22;10059;59.850;10.454;2023-06-04T07:28:10;17.30;99.90
19799;DHT22;10059;59.850;10.454;2023-06-04T07:30:37;17.80;99.90
19799;DHT22;10059;59.850;10.454;2023-06-04T07:33:04;18.20;99.90
19799;DHT22;10059;59.850;10.454;2023-06-04T07:35:33;18.30;99.90
19799;DHT22;10059;59.850;10.454;2023-06-04T07:38:00;18.00;99.90
19799;DHT22;10059;59.850;10.454;2023-06-04T07:40:26;17.60;99.90
19799;DHT22;10059;59.850;10.454;2023-06-04T07:42:53;18.20;99.90
19799;DHT22;10059;59.850;10.454;2023-06-04T07:45:20;18.20;99.90
19799;DHT22;10059;59.850;10.454;2023-06-04T07:47:47;18.40;99.90
19799;DHT22;10059;59.850;10.454;2023-06-04T07:50:14;18.50;99.90
19799;DHT22;10059;59.850;10.454;2023-06-04T07:52:42;17.80;99.90
19799;DHT22;10059;59.850;10.454;2023-06-04T07:55:09;18.10;99.90
19799;DHT22;10059;59.850;10.454;2023-06-04T07:57:36;18.40;99.90
19799;DHT22;10059;59.850;10.454;2023-06-04T08:00:03;18.80;99.90
19799;DHT22;10059;59.850;10.454;2023-06-04T08:02:31;19.30;99.90
19799;DHT22;10059;59.850;10.454;2023-06-04T08:04:58;19.60;99.90
19799;DHT22;10059;59.850;10.454;2023-06-04T08:07:25;19.80;99.90
19799;DHT22;10059;59.850;10.454;2023-06-04T08:09:53;19.30;99.90
19799;DHT22;10059;59.850;10.454;2023-06-04T08:12:21;19.60;99.90
19799;DHT22;10059;59.850;10.454;2023-06-04T08:14:48;18.70;99.90
19799;DHT22;10059;59.850;10.454;2023-06-04T08:17:16;19.40;99.90
19799;DHT22;10059;59.850;10.454;2023-06-04T08:19:42;19.30;99.90
19799;DHT22;10059;59.850;10.454;2023-06-04T08:22:09;19.40;99.90
19799;DHT22;10059;59.850;10.454;2023-06-04T08:24:37;18.90;99.90
19799;DHT22;10059;59.850;10.454;2023-06-04T08:27:05;19.30;99.90
19799;DHT22;10059;59.850;10.454;2023-06-04T08:29:33;19.30;99.90
19799;DHT22;10059;59.850;10.454;2023-06-04T08:32:01;19.20;99.90
19799;DHT22;10059;59.850;10.454;2023-06-04T08:34:28;19.70;99.90
19799;DHT22;10059;59.850;10.454;2023-06-04T08:36:54;19.70;99.90
19799;DHT22;10059;59.850;10.454;2023-06-04T08:39:21;19.10;99.90
19799;DHT22;10059;59.850;10.454;2023-06-04T08:41:51;19.00;99.90
19799;DHT22;10059;59.850;10.454;2023-06-04T08:44:20;19.40;99.90
19799;DHT22;10059;59.850;10.454;2023-06-04T08:46:51;19.60;99.90
19799;DHT22;10059;59.850;10.454;2023-06-04T08:49:19;19.90;99.90
19799;DHT22;10059;59.850;10.454;2023-06-04T08:51:47;20.00;99.90
19799;DHT22;10059;59.850;10.454;2023-06-04T08:54:14;20.50;99.90
19799;DHT22;10059;59.850;10.454;2023-06-04T08:56:42;20.70;99.80
19799;DHT22;10059;59.850;10.454;2023-06-04T08:59:11;20.80;99.30
19799;DHT22;10059;59.850;10.454;2023-06-04T09:01:41;21.00;98.10
19799;DHT22;10059;59.850;10.454;2023-06-04T09:04:10;20.90;99.50
19799;DHT22;10059;59.850;10.454;2023-06-04T09:06:39;20.10;99.40
19799;DHT22;10059;59.850;10.454;2023-06-04T09:09:09;20.60;99.00
19799;DHT22;10059;59.850;10.454;2023-06-04T09:11:38;20.50;98.50
19799;DHT22;10059;59.850;10.454;2023-06-04T09:14:08;20.50;99.10
19799;DHT22;10059;59.850;10.454;2023-06-04T09:16:44;20.10;98.90
19799;DHT22;10059;59.850;10.454;2023-06-04T09:19:11;20.50;98.80
19799;DHT22;10059;59.850;10.454;2023-06-04T09:21:49;21.10;99.50
19799;DHT22;10059;59.850;10.454;2023-06-04T09:24:16;21.50;99.00
19799;DHT22;10059;59.850;10.454;2023-06-04T09:26:43;21.90;98.50
19799;DHT22;10059;59.850;10.454;2023-06-04T09:29:10;21.30;96.60
19799;DHT22;10059;59.850;10.454;2023-06-04T09:31:37;21.20;96.90
19799;DHT22;10059;59.850;10.454;2023-06-04T09:34:07;21.40;96.80
19799;DHT22;10059;59.850;10.454;2023-06-04T09:36:34;22.00;96.10
19799;DHT22;10059;59.850;10.454;2023-06-04T09:39:02;21.00;96.00
19799;DHT22;10059;59.850;10.454;2023-06-04T09:41:30;21.00;97.10
19799;DHT22;10059;59.850;10.454;2023-06-04T09:44:01;21.10;96.70
19799;DHT22;10059;59.850;10.454;2023-06-04T09:46:29;21.50;96.20
19799;DHT22;10059;59.850;10.454;2023-06-04T09:49:00;21.80;96.10
19799;DHT22;10059;59.850;10.454;2023-06-04T09:51:29;21.50;94.90
19799;DHT22;10059;59.850;10.454;2023-06-04T09:53:57;21.10;94.90
19799;DHT22;10059;59.850;10.454;2023-06-04T09:56:24;20.70;95.40
19799;DHT22;10059;59.850;10.454;2023-06-04T09:58:54;20.50;95.00
19799;DHT22;10059;59.850;10.454;2023-06-04T10:01:23;21.00;95.30
19799;DHT22;10059;59.850;10.454;2023-06-04T10:03:51;21.30;94.50
19799;DHT22;10059;59.850;10.454;2023-06-04T10:06:19;21.50;95.10
19799;DHT22;10059;59.850;10.454;2023-06-04T10:08:48;21.90;93.40
19799;DHT22;10059;59.850;10.454;2023-06-04T10:11:23;21.80;94.30
19799;DHT22;10059;59.850;10.454;2023-06-04T10:13:54;21.80;93.70
19799;DHT22;10059;59.850;10.454;2023-06-04T10:16:23;21.70;93.60
19799;DHT22;10059;59.850;10.454;2023-06-04T10:18:52;21.50;94.00
19799;DHT22;10059;59.850;10.454;2023-06-04T10:21:21;21.10;93.90
19799;DHT22;10059;59.850;10.454;2023-06-04T10:23:50;21.30;94.50
19799;DHT22;10059;59.850;10.454;2023-06-04T10:26:17;21.30;94.90
19799;DHT22;10059;59.850;10.454;2023-06-04T10:28:44;21.90;93.90
19799;DHT22;10059;59.850;10.454;2023-06-04T10:31:12;22.10;94.30
19799;DHT22;10059;59.850;10.454;2023-06-04T10:33:39;21.90;94.60
19799;DHT22;10059;59.850;10.454;2023-06-04T10:36:16;21.90;94.10
19799;DHT22;10059;59.850;10.454;2023-06-04T10:38:47;22.00;93.30
19799;DHT22;10059;59.850;10.454;2023-06-04T10:41:16;21.70;93.40
19799;DHT22;10059;59.850;10.454;2023-06-04T10:43:43;21.40;93.00
19799;DHT22;10059;59.850;10.454;2023-06-04T10:46:12;21.70;92.60
19799;DHT22;10059;59.850;10.454;2023-06-04T10:48:45;21.70;92.90
19799;DHT22;10059;59.850;10.454;2023-06-04T10:51:12;21.20;92.90
19799;DHT22;10059;59.850;10.454;2023-06-04T10:53:39;21.30;93.50
19799;DHT22;10059;59.850;10.454;2023-06-04T10:56:06;21.80;92.40
19799;DHT22;10059;59.850;10.454;2023-06-04T10:58:34;22.30;93.00
19799;DHT22;10059;59.850;10.454;2023-06-04T11:01:01;21.80;91.70
19799;DHT22;10059;59.850;10.454;2023-06-04T11:03:35;21.10;92.70
19799;DHT22;10059;59.850;10.454;2023-06-04T11:06:02;21.70;91.30
19799;DHT22;10059;59.850;10.454;2023-06-04T11:08:30;21.90;90.80
19799;DHT22;10059;59.850;10.454;2023-06-04T11:10:57;21.70;90.00
19799;DHT22;10059;59.850;10.454;2023-06-04T11:13:24;22.00;91.40
19799;DHT22;10059;59.850;10.454;2023-06-04T11:15:52;22.20;90.20
19799;DHT22;10059;59.850;10.454;2023-06-04T11:18:20;22.40;90.20
19799;DHT22;10059;59.850;10.454;2023-06-04T11:20:48;22.20;88.70
19799;DHT22;10059;59.850;10.454;2023-06-04T11:23:16;22.50;90.00
19799;DHT22;10059;59.850;10.454;2023-06-04T11:25:43;22.50;89.10
19799;DHT22;10059;59.850;10.454;2023-06-04T11:28:15;23.00;89.40
19799;DHT22;10059;59.850;10.454;2023-06-04T11:30:42;22.90;86.70
19799;DHT22;10059;59.850;10.454;2023-06-04T11:33:10;22.70;89.70
19799;DHT22;10059;59.850;10.454;2023-06-04T11:35:40;23.00;88.20
19799;DHT22;10059;59.850;10.454;2023-06-04T11:38:08;23.30;87.40
19799;DHT22;10059;59.850;10.454;2023-06-04T11:40:35;23.40;87.30
19799;DHT22;10059;59.850;10.454;2023-06-04T11:43:02;23.90;84.10
19799;DHT22;10059;59.850;10.454;2023-06-04T11:45:29;23.50;84.60
19799;DHT22;10059;59.850;10.454;2023-06-04T11:47:56;22.90;84.70
19799;DHT22;10059;59.850;10.454;2023-06-04T11:50:28;23.60;84.30
19799;DHT22;10059;59.850;10.454;2023-06-04T11:52:55;22.40;85.30
19799;DHT22;10059;59.850;10.454;2023-06-04T11:55:22;22.60;87.40
19799;DHT22;10059;59.850;10.454;2023-06-04T11:57:50;22.40;86.30
19799;DHT22;10059;59.850;10.454;2023-06-04T12:00:18;22.80;88.30
19799;DHT22;10059;59.850;10.454;2023-06-04T12:02:50;23.20;87.10
19799;DHT22;10059;59.850;10.454;2023-06-04T12:05:18;22.80;86.40
19799;DHT22;10059;59.850;10.454;2023-06-04T12:07:47;22.80;84.90
19799;DHT22;10059;59.850;10.454;2023-06-04T12:10:16;23.30;85.00
19799;DHT22;10059;59.850;10.454;2023-06-04T12:12:43;23.20;83.70
19799;DHT22;10059;59.850;10.454;2023-06-04T12:15:10;23.30;83.00
19799;DHT22;10059;59.850;10.454;2023-06-04T12:17:37;23.60;82.40
19799;DHT22;10059;59.850;10.454;2023-06-04T12:20:05;23.70;80.90
19799;DHT22;10059;59.850;10.454;2023-06-04T12:22:33;23.80;80.80
19799;DHT22;10059;59.850;10.454;2023-06-04T12:25:12;24.50;84.60
19799;DHT22;10059;59.850;10.454;2023-06-04T12:27:47;24.40;79.70
19799;DHT22;10059;59.850;10.454;2023-06-04T12:30:14;24.00;79.50
19799;DHT22;10059;59.850;10.454;2023-06-04T12:32:42;24.40;82.00
19799;DHT22;10059;59.850;10.454;2023-06-04T12:35:09;25.00;78.80
19799;DHT22;10059;59.850;10.454;2023-06-04T12:37:36;24.70;78.00
19799;DHT22;10059;59.850;10.454;2023-06-04T12:40:03;23.70;77.40
19799;DHT22;10059;59.850;10.454;2023-06-04T12:42:33;23.70;78.30
19799;DHT22;10059;59.850;10.454;2023-06-04T12:45:00;23.30;78.40
19799;DHT22;10059;59.850;10.454;2023-06-04T12:47:26;23.00;80.40
19799;DHT22;10059;59.850;10.454;2023-06-04T12:49:53;23.20;80.80
19799;DHT22;10059;59.850;10.454;2023-06-04T12:52:20;23.80;77.80
19799;DHT22;10059;59.850;10.454;2023-06-04T12:54:48;24.40;78.50
19799;DHT22;10059;59.850;10.454;2023-06-04T12:57:15;24.00;76.80
19799;DHT22;10059;59.850;10.454;2023-06-04T12:59:43;23.80;76.30
19799;DHT22;10059;59.850;10.454;2023-06-04T13:02:10;24.20;76.50
19799;DHT22;10059;59.850;10.454;2023-06-04T13:04:36;23.90;77.90
19799;DHT22;10059;59.850;10.454;2023-06-04T13:07:03;23.60;74.90
19799;DHT22;10059;59.850;10.454;2023-06-04T13:09:30;24.00;77.70
19799;DHT22;10059;59.850;10.454;2023-06-04T13:11:58;23.20;77.40
19799;DHT22;10059;59.850;10.454;2023-06-04T13:14:25;22.80;77.70
19799;DHT22;10059;59.850;10.454;2023-06-04T13:16:53;23.20;80.60
19799;DHT22;10059;59.850;10.454;2023-06-04T13:19:20;22.70;77.60
19799;DHT22;10059;59.850;10.454;2023-06-04T13:21:47;22.60;79.30
19799;DHT22;10059;59.850;10.454;2023-06-04T13:24:13;23.00;77.70
19799;DHT22;10059;59.850;10.454;2023-06-04T13:26:41;22.90;76.60
19799;DHT22;10059;59.850;10.454;2023-06-04T13:29:08;23.20;77.70
19799;DHT22;10059;59.850;10.454;2023-06-04T13:31:34;23.50;77.20
19799;DHT22;10059;59.850;10.454;2023-06-04T13:34:03;23.00;78.40
19799;DHT22;10059;59.850;10.454;2023-06-04T13:36:30;22.80;79.60
19799;DHT22;10059;59.850;10.454;2023-06-04T13:38:57;23.30;79.60
19799;DHT22;10059;59.850;10.454;2023-06-04T13:41:24;22.60;80.20
19799;DHT22;10059;59.850;10.454;2023-06-04T13:43:50;22.90;81.40
19799;DHT22;10059;59.850;10.454;2023-06-04T13:46:17;23.10;80.00
19799;DHT22;10059;59.850;10.454;2023-06-04T13:48:44;23.30;76.90
19799;DHT22;10059;59.850;10.454;2023-06-04T13:51:12;23.20;77.50
19799;DHT22;10059;59.850;10.454;2023-06-04T13:53:39;23.00;76.40
19799;DHT22;10059;59.850;10.454;2023-06-04T13:56:06;23.60;78.80
19799;DHT22;10059;59.850;10.454;2023-06-04T13:58:33;23.30;75.80
19799;DHT22;10059;59.850;10.454;2023-06-04T14:00:59;23.10;76.00
19799;DHT22;10059;59.850;10.454;2023-06-04T14:03:26;23.30;75.30
19799;DHT22;10059;59.850;10.454;2023-06-04T14:05:53;23.10;76.10
19799;DHT22;10059;59.850;10.454;2023-06-04T14:08:21;23.30;78.30
19799;DHT22;10059;59.850;10.454;2023-06-04T14:10:48;23.40;79.10
19799;DHT22;10059;59.850;10.454;2023-06-04T14:13:17;23.50;76.20
19799;DHT22;10059;59.850;10.454;2023-06-04T14:15:44;23.30;76.00
19799;DHT22;10059;59.850;10.454;2023-06-04T14:18:11;23.10;74.50
19799;DHT22;10059;59.850;10.454;2023-06-04T14:20:37;23.40;75.40
19799;DHT22;10059;59.850;10.454;2023-06-04T14:23:04;23.00;75.60
19799;DHT22;10059;59.850;10.454;2023-06-04T14:25:32;22.80;75.00
19799;DHT22;10059;59.850;10.454;2023-06-04T14:28:02;23.00;74.30
19799;DHT22;10059;59.850;10.454;2023-06-04T14:30:28;23.10;75.30
19799;DHT22;10059;59.850;10.454;2023-06-04T14:32:55;23.70;77.20
19799;DHT22;10059;59.850;10.454;2023-06-04T14:35:22;23.60;75.90
19799;DHT22;10059;59.850;10.454;2023-06-04T14:37:49;23.40;73.60
19799;DHT22;10059;59.850;10.454;2023-06-04T14:40:16;23.60;75.00
19799;DHT22;10059;59.850;10.454;2023-06-04T14:42:44;23.60;76.30
19799;DHT22;10059;59.850;10.454;2023-06-04T14:45:11;23.20;77.50
19799;DHT22;10059;59.850;10.454;2023-06-04T14:47:37;22.90;75.90
19799;DHT22;10059;59.850;10.454;2023-06-04T14:50:05;22.90;75.80
19799;DHT22;10059;59.850;10.454;2023-06-04T14:52:32;22.90;77.40
19799;DHT22;10059;59.850;10.454;2023-06-04T14:54:59;23.20;76.00
19799;DHT22;10059;59.850;10.454;2023-06-04T14:57:26;23.50;75.00
19799;DHT22;10059;59.850;10.454;2023-06-04T14:59:54;23.30;75.30
19799;DHT22;10059;59.850;10.454;2023-06-04T15:02:21;23.50;76.00
19799;DHT22;10059;59.850;10.454;2023-06-04T15:04:47;23.30;74.80
19799;DHT22;10059;59.850;10.454;2023-06-04T15:07:14;23.40;77.60
19799;DHT22;10059;59.850;10.454;2023-06-04T15:09:41;23.50;75.70
19799;DHT22;10059;59.850;10.454;2023-06-04T15:12:08;23.00;74.60
19799;DHT22;10059;59.850;10.454;2023-06-04T15:14:34;23.00;75.30
19799;DHT22;10059;59.850;10.454;2023-06-04T15:17:03;23.40;74.60
19799;DHT22;10059;59.850;10.454;2023-06-04T15:19:30;23.60;76.70